Time;durP1;ratioP1;P1;durP2;ratioP2;P2;SDS_P1;SDS_P2;PMS_P1;PMS_P2;Temp;Humidity;BMP_temperature;BMP_pressure;BME280_temperature;BME280_humidity;BME280_pressure;Samples;Min_cycle;Max_cycle;Signal;HPM_P1;HPM_P2
2023/06/19 00:00:32;;;;;;;10.33;9.43;;;24.20;62.90;;;;;;4948862;28;20460;-70
2023/06/19 00:02:58;;;;;;;10.50;9.50;;;24.20;63.60;;;;;;4952536;28;20696;-69
2023/06/19 00:05:24;;;;;;;9.93;9.03;;;24.20;63.80;;;;;;4948401;28;20452;-70
2023/06/19 00:07:50;;;;;;;10.17;9.37;;;24.20;63.50;;;;;;4951699;28;20193;-70
2023/06/19 00:10:16;;;;;;;10.33;9.50;;;24.20;63.90;;;;;;4951265;28;20460;-70
2023/06/19 00:12:41;;;;;;;9.80;8.90;;;24.20;64.10;;;;;;4947696;28;20476;-70
2023/06/19 00:15:09;;;;;;;10.97;10.10;;;24.10;64.30;;;;;;4951344;28;20237;-69
2023/06/19 00:17:37;;;;;;;10.30;9.40;;;24.20;64.60;;;;;;4952304;28;20588;-69
2023/06/19 00:20:05;;;;;;;10.37;9.57;;;24.20;64.80;;;;;;4948447;28;20455;-70
2023/06/19 00:22:31;;;;;;;9.77;8.97;;;24.10;64.90;;;;;;4951154;28;21119;-70
2023/06/19 00:24:56;;;;;;;10.90;10.00;;;24.10;65.20;;;;;;4949496;28;20444;-70
2023/06/19 00:27:22;;;;;;;9.97;8.93;;;24.10;65.70;;;;;;4952011;28;20197;-70
2023/06/19 00:29:47;;;;;;;10.20;9.37;;;24.10;66.10;;;;;;4952432;28;20208;-70
2023/06/19 00:32:13;;;;;;;10.73;9.93;;;24.00;66.60;;;;;;4951461;28;20261;-70
2023/06/19 00:34:39;;;;;;;10.37;9.47;;;24.00;68.00;;;;;;4947724;28;20240;-70
2023/06/19 00:37:04;;;;;;;10.60;9.73;;;24.00;67.40;;;;;;4950716;28;20204;-70
2023/06/19 00:39:30;;;;;;;9.73;8.93;;;23.90;67.50;;;;;;4950396;28;20200;-70
2023/06/19 00:41:56;;;;;;;9.83;9.10;;;23.90;67.60;;;;;;4950578;28;20222;-70
2023/06/19 00:44:22;;;;;;;10.63;9.83;;;23.90;67.80;;;;;;4944970;28;20194;-70
2023/06/19 00:46:55;;;;;;;9.47;8.67;;;23.80;68.00;;;;;;4950019;28;20197;-70
2023/06/19 00:49:21;;;;;;;10.03;9.23;;;23.80;68.20;;;;;;4950548;28;20468;-70
2023/06/19 00:51:47;;;;;;;9.23;8.43;;;23.80;68.40;;;;;;4951292;28;20674;-70
2023/06/19 00:54:12;;;;;;;8.70;8.10;;;23.70;68.50;;;;;;4950293;28;20445;-70
2023/06/19 00:56:40;;;;;;;9.37;8.67;;;23.70;68.70;;;;;;4949894;28;20220;-70
2023/06/19 00:59:19;;;;;;;9.60;8.90;;;23.70;68.90;;;;;;4947320;28;20448;-70
2023/06/19 01:01:46;;;;;;;9.43;8.40;;;23.70;68.70;;;;;;4945923;28;20483;-70
2023/06/19 01:04:12;;;;;;;10.73;9.93;;;23.70;69.00;;;;;;4947082;28;20901;-70
2023/06/19 01:06:50;;;;;;;10.17;9.27;;;23.70;69.50;;;;;;4949901;28;20527;-70
2023/06/19 01:09:18;;;;;;;9.20;8.60;;;23.70;69.80;;;;;;4950214;28;20453;-70
2023/06/19 01:11:48;;;;;;;8.63;8.03;;;23.70;70.10;;;;;;4951042;28;20507;-70
2023/06/19 01:14:35;;;;;;;9.00;8.40;;;23.60;70.20;;;;;;4948655;28;20457;-70
2023/06/19 01:17:02;;;;;;;9.93;8.93;;;23.60;70.60;;;;;;4947312;28;20455;-70
2023/06/19 01:19:28;;;;;;;9.10;8.40;;;23.60;70.60;;;;;;4946473;28;20448;-70
2023/06/19 01:21:54;;;;;;;8.13;7.43;;;23.50;70.40;;;;;;4949307;28;20950;-70
2023/06/19 01:24:19;;;;;;;10.13;7.47;;;23.50;68.40;;;;;;4951286;28;20459;-69
2023/06/19 01:26:45;;;;;;;7.80;7.10;;;23.60;67.30;;;;;;4948240;28;21016;-69
2023/06/19 01:29:12;;;;;;;7.80;7.20;;;23.70;67.10;;;;;;4946551;28;20201;-70
2023/06/19 01:31:54;;;;;;;7.27;6.70;;;23.80;67.00;;;;;;4948426;28;20212;-70
2023/06/19 01:34:21;;;;;;;7.43;6.57;;;23.80;67.00;;;;;;4946286;28;20448;-70
2023/06/19 01:36:49;;;;;;;7.10;6.40;;;23.80;66.90;;;;;;4950100;28;20569;-70
2023/06/19 01:39:17;;;;;;;7.47;6.93;;;23.80;67.00;;;;;;4949616;28;20451;-70
2023/06/19 01:41:44;;;;;;;9.57;6.63;;;23.90;66.90;;;;;;4949265;28;20499;-70
2023/06/19 01:44:10;;;;;;;7.60;7.00;;;23.80;67.00;;;;;;4947596;28;20536;-70
2023/06/19 01:46:51;;;;;;;6.97;6.37;;;23.80;67.00;;;;;;4946554;28;20453;-70
2023/06/19 01:49:17;;;;;;;7.30;6.70;;;23.10;66.40;;;;;;4938559;28;20968;-70
2023/06/19 01:51:43;;;;;;;7.47;6.80;;;23.80;67.60;;;;;;4949562;28;20996;-70
2023/06/19 01:54:09;;;;;;;6.30;5.80;;;23.80;68.10;;;;;;4950807;28;20440;-69
2023/06/19 01:56:35;;;;;;;6.63;6.03;;;23.80;69.00;;;;;;4948479;28;20225;-70
2023/06/19 01:59:01;;;;;;;7.30;6.80;;;23.80;69.60;;;;;;4947985;28;20210;-70
2023/06/19 02:01:26;;;;;;;6.50;6.00;;;23.70;70.30;;;;;;4949046;28;20876;-70
2023/06/19 02:03:52;;;;;;;6.37;5.87;;;23.70;70.80;;;;;;4947652;28;20263;-69
2023/06/19 02:06:17;;;;;;;6.40;5.57;;;23.60;71.30;;;;;;4951801;28;20698;-70
2023/06/19 02:08:43;;;;;;;5.73;5.33;;;23.60;71.70;;;;;;4948630;28;20247;-69
2023/06/19 02:11:09;;;;;;;6.90;6.40;;;23.60;72.00;;;;;;4950785;28;20692;-70
2023/06/19 02:13:34;;;;;;;6.57;6.13;;;23.60;72.40;;;;;;4947983;28;20193;-70
2023/06/19 02:16:00;;;;;;;6.20;5.70;;;23.50;72.80;;;;;;4948723;28;20701;-70
2023/06/19 02:18:25;;;;;;;7.10;6.50;;;23.60;72.90;;;;;;4946138;28;20221;-71
2023/06/19 02:20:51;;;;;;;6.27;5.77;;;23.60;72.80;;;;;;4948326;28;20678;-70
2023/06/19 02:23:17;;;;;;;6.80;6.30;;;23.60;72.90;;;;;;4950195;28;20232;-70
2023/06/19 02:25:42;;;;;;;6.27;5.63;;;23.60;72.90;;;;;;4976177;23;20232;-86
2023/06/19 02:28:08;;;;;;;6.53;6.03;;;;;;;;;;4955046;29;20189;-87
2023/06/19 02:30:34;;;;;;;5.90;5.33;;;23.60;73.20;;;;;;4962238;29;20252;-86
2023/06/19 02:33:00;;;;;;;5.93;5.33;;;23.90;75.30;;;;;;4965888;29;20464;-86
2023/06/19 02:35:26;;;;;;;5.57;5.17;;;;;;;;;;4948617;29;20220;-86
2023/06/19 02:37:51;;;;;;;6.20;5.70;;;23.50;74.60;;;;;;4949431;29;20277;-86
2023/06/19 02:40:17;;;;;;;6.00;5.60;;;24.40;77.90;;;;;;4950111;29;20447;-86
2023/06/19 02:42:42;;;;;;;5.80;5.40;;;25.40;78.60;;;;;;4950288;28;20196;-86
2023/06/19 02:45:08;;;;;;;5.23;4.83;;;23.60;76.30;;;;;;4949735;29;20654;-86
2023/06/19 02:47:34;;;;;;;6.20;5.70;;;23.60;76.50;;;;;;4948491;29;20464;-86
2023/06/19 02:50:00;;;;;;;5.47;5.07;;;25.00;78.30;;;;;;4949075;29;21028;-86
2023/06/19 02:52:27;;;;;;;5.50;5.10;;;24.00;77.20;;;;;;4948182;28;20299;-86
2023/06/19 02:54:52;;;;;;;5.90;5.40;;;23.70;76.80;;;;;;4947074;29;20475;-87
2023/06/19 02:57:18;;;;;;;5.57;5.17;;;23.70;76.80;;;;;;4950321;29;20966;-86
2023/06/19 02:59:45;;;;;;;5.20;4.80;;;23.80;76.80;;;;;;4955620;29;20189;-86
2023/06/19 03:02:11;;;;;;;6.13;5.70;;;24.20;77.90;;;;;;4941212;29;20228;-86
2023/06/19 03:04:37;;;;;;;6.13;5.63;;;;;;;;;;4956451;29;20977;-86
2023/06/19 03:07:03;;;;;;;5.17;4.87;;;23.70;76.40;;;;;;4968609;28;20448;-86
2023/06/19 03:09:29;;;;;;;4.90;4.60;;;;;;;;;;4952496;29;20472;-86
2023/06/19 03:11:54;;;;;;;5.60;5.10;;;;;;;;;;4956282;28;20237;-86
2023/06/19 03:14:20;;;;;;;5.10;4.70;;;23.70;77.40;;;;;;4950657;29;20437;-86
2023/06/19 03:16:46;;;;;;;5.40;5.00;;;24.90;79.70;;;;;;4950379;29;20476;-86
2023/06/19 03:19:12;;;;;;;4.70;4.40;;;25.10;80.00;;;;;;4949618;29;20189;-86
2023/06/19 03:21:38;;;;;;;4.70;4.30;;;23.70;78.60;;;;;;4948786;28;20444;-86
2023/06/19 03:24:04;;;;;;;4.80;4.47;;;23.80;79.00;;;;;;4946696;29;20218;-87
2023/06/19 03:26:29;;;;;;;3.97;3.77;;;23.60;79.30;;;;;;4940123;28;20228;-86
2023/06/19 03:28:55;;;;;;;4.53;4.13;;;23.60;80.00;;;;;;4966222;28;20498;-86
2023/06/19 03:31:20;;;;;;;4.67;4.37;;;23.50;79.10;;;;;;4951069;28;20181;-86
2023/06/19 03:33:46;;;;;;;3.90;3.60;;;23.50;79.80;;;;;;4950367;29;20185;-86
2023/06/19 03:36:11;;;;;;;4.20;3.90;;;23.60;80.00;;;;;;4951070;29;20213;-87
2023/06/19 03:38:37;;;;;;;4.37;4.07;;;23.70;80.40;;;;;;4953227;29;20197;-87
2023/06/19 03:41:03;;;;;;;4.63;3.27;;;23.60;80.70;;;;;;4952195;29;20197;-87
2023/06/19 03:43:28;;;;;;;5.10;4.20;;;23.30;81.90;;;;;;4953673;28;20243;-87
2023/06/19 03:45:54;;;;;;;4.67;4.27;;;23.30;83.20;;;;;;4949436;29;20195;-87
2023/06/19 03:48:19;;;;;;;6.10;4.20;;;23.20;84.30;;;;;;4950647;29;20672;-87
2023/06/19 03:50:45;;;;;;;4.83;4.00;;;23.20;84.90;;;;;;4952865;29;20197;-87
2023/06/19 03:53:10;;;;;;;4.03;3.63;;;23.20;86.20;;;;;;4953032;28;20760;-87
2023/06/19 03:55:36;;;;;;;3.80;3.50;;;23.00;87.20;;;;;;4964292;29;20272;-87
2023/06/19 03:58:02;;;;;;;3.37;3.17;;;24.60;89.20;;;;;;4976866;28;20549;-87
2023/06/19 04:00:28;;;;;;;3.30;3.10;;;23.70;89.50;;;;;;4964113;29;20180;-87
2023/06/19 04:02:53;;;;;;;3.80;3.50;;;21.50;87.90;;;;;;4951884;28;20697;-87
2023/06/19 04:05:22;;;;;;;4.17;3.87;;;22.50;90.20;;;;;;4955012;29;20208;-87
2023/06/19 04:07:48;;;;;;;3.50;3.30;;;25.20;92.10;;;;;;4949022;29;20252;-86
2023/06/19 04:10:16;;;;;;;4.20;3.50;;;;;;;;;;4953314;29;20579;-86
2023/06/19 04:12:42;;;;;;;4.33;3.57;;;22.70;91.20;;;;;;4936776;29;20472;-86
2023/06/19 04:15:08;;;;;;;4.10;3.80;;;22.30;91.60;;;;;;4950494;29;20856;-87
2023/06/19 04:17:34;;;;;;;4.00;3.67;;;;;;;;;;4949152;29;20192;-86
2023/06/19 04:20:00;;;;;;;3.40;3.10;;;22.50;92.00;;;;;;4951365;28;20444;-86
2023/06/19 04:22:25;;;;;;;4.40;4.03;;;22.60;93.90;;;;;;4949125;28;20468;-86
2023/06/19 04:24:51;;;;;;;4.30;4.00;;;22.90;94.30;;;;;;4951708;29;20621;-86
2023/06/19 04:27:17;;;;;;;4.43;3.90;;;22.90;94.80;;;;;;4952390;29;20200;-87
2023/06/19 04:29:42;;;;;;;4.30;3.90;;;25.40;95.40;;;;;;4951965;29;20181;-86
2023/06/19 04:32:11;;;;;;;4.03;3.63;;;24.70;96.10;;;;;;4949013;28;20299;-86
2023/06/19 04:34:38;;;;;;;4.43;3.33;;;22.20;94.20;;;;;;4950378;29;20197;-86
2023/06/19 04:37:04;;;;;;;3.83;3.53;;;23.70;94.70;;;;;;4949822;29;20539;-87
2023/06/19 04:39:29;;;;;;;7.63;4.20;;;22.40;94.00;;;;;;4949209;28;20933;-87
2023/06/19 04:41:55;;;;;;;3.90;3.43;;;23.30;94.50;;;;;;4948609;28;21060;-87
2023/06/19 04:44:20;;;;;;;5.10;3.60;;;22.60;94.00;;;;;;4949371;28;20181;-87
2023/06/19 04:46:46;;;;;;;4.00;3.50;;;22.40;94.00;;;;;;4948112;29;20676;-87
2023/06/19 04:49:12;;;;;;;3.70;3.13;;;22.80;94.30;;;;;;4933083;29;20236;-88
2023/06/19 04:51:38;;;;;;;4.10;3.70;;;23.00;94.10;;;;;;4953074;28;20193;-86
2023/06/19 04:54:04;;;;;;;3.60;3.30;;;23.00;94.30;;;;;;4951257;29;20454;-87
2023/06/19 04:56:29;;;;;;;4.00;3.60;;;22.80;94.00;;;;;;4952615;29;20219;-86
2023/06/19 04:58:59;;;;;;;4.33;3.60;;;23.10;94.00;;;;;;4933731;29;20208;-87
2023/06/19 05:01:28;;;;;;;4.40;4.00;;;23.00;93.70;;;;;;4945916;28;20972;-90
2023/06/19 05:03:54;;;;;;;3.63;3.33;;;24.10;93.90;;;;;;4951522;28;20440;-89
2023/06/19 05:06:23;;;;;;;3.47;3.23;;;23.70;93.10;;;;;;4953087;29;20528;-90
2023/06/19 05:08:49;;;;;;;4.00;3.70;;;23.40;93.10;;;;;;4952927;29;20449;-90
2023/06/19 05:11:15;;;;;;;3.87;3.47;;;23.80;93.00;;;;;;4951674;29;20455;-90
2023/06/19 05:13:40;;;;;;;3.57;3.27;;;25.90;94.00;;;;;;4968420;28;20241;-89
2023/06/19 05:16:07;;;;;;;3.43;3.07;;;23.80;92.70;;;;;;4953115;28;20272;-90
2023/06/19 05:18:33;;;;;;;3.27;3.00;;;23.60;92.60;;;;;;4953901;28;20181;-91
2023/06/19 05:20:58;;;;;;;3.37;3.07;;;24.00;92.70;;;;;;4950554;28;20448;-91
2023/06/19 05:23:24;;;;;;;4.03;3.73;;;23.60;92.40;;;;;;4951000;28;20212;-91
2023/06/19 05:25:50;;;;;;;3.43;3.20;;;24.10;92.90;;;;;;4953602;28;20200;-91
2023/06/19 05:28:16;;;;;;;3.67;3.33;;;24.10;92.90;;;;;;4952264;28;20192;-91
2023/06/19 05:30:41;;;;;;;3.70;3.40;;;23.50;92.90;;;;;;4964846;28;20806;-90
2023/06/19 05:33:07;;;;;;;3.40;3.10;;;23.50;92.80;;;;;;4961202;28;20657;-90
2023/06/19 05:35:32;;;;;;;3.60;3.30;;;24.60;93.40;;;;;;4954257;29;20208;-90
2023/06/19 05:37:58;;;;;;;3.53;3.00;;;25.30;93.90;;;;;;4951013;29;20187;-90
2023/06/19 05:40:24;;;;;;;3.83;3.53;;;24.50;94.30;;;;;;4952698;29;20237;-90
2023/06/19 05:42:49;;;;;;;4.73;3.30;;;25.30;94.60;;;;;;4952372;28;20212;-90
2023/06/19 05:45:15;;;;;;;3.73;3.40;;;24.00;94.00;;;;;;4949293;29;20192;-90
2023/06/19 05:47:40;;;;;;;3.40;3.10;;;25.60;94.40;;;;;;4949848;28;20256;-90
2023/06/19 05:50:07;;;;;;;4.33;3.40;;;26.30;94.30;;;;;;4953940;29;20185;-90
2023/06/19 05:52:32;;;;;;;3.60;3.30;;;24.00;93.60;;;;;;4947138;29;20204;-91
2023/06/19 05:54:58;;;;;;;4.10;3.80;;;25.80;93.50;;;;;;4949681;28;20475;-90
2023/06/19 08:25:15;;;;;;;3.37;3.17;;;30.70;54.20;;;;;;5611298;23;20638;-91
2023/06/19 08:27:41;;;;;;;2.87;2.67;;;30.60;56.70;;;;;;5001924;28;20465;-91
2023/06/19 08:30:07;;;;;;;5.40;3.20;;;30.00;56.70;;;;;;4999508;28;20995;-91
2023/06/19 08:32:34;;;;;;;3.60;3.40;;;29.80;57.30;;;;;;4986699;28;20217;-91
2023/06/19 08:35:03;;;;;;;4.10;3.70;;;30.00;58.70;;;;;;4985005;28;20207;-91
2023/06/19 08:37:29;;;;;;;4.57;3.00;;;29.00;60.00;;;;;;4979937;28;20526;-89
2023/06/19 08:39:56;;;;;;;5.73;5.30;;;29.20;60.20;;;;;;4992338;28;20513;-91
2023/06/19 08:42:22;;;;;;;4.80;3.17;;;29.00;63.00;;;;;;4997682;28;20209;-92
2023/06/19 08:44:48;;;;;;;7.40;3.40;;;30.30;60.80;;;;;;4990507;28;20478;-92
2023/06/19 08:47:14;;;;;;;3.23;2.93;;;30.70;62.00;;;;;;4988586;28;20457;-92
2023/06/19 08:49:40;;;;;;;2.90;2.70;;;30.60;60.90;;;;;;4985131;28;20447;-91
2023/06/19 08:52:06;;;;;;;3.27;3.07;;;31.20;60.50;;;;;;4999166;28;20216;-92
2023/06/19 08:54:32;;;;;;;3.10;2.90;;;30.30;57.10;;;;;;4983952;28;20188;-92
2023/06/19 08:57:01;;;;;;;4.13;3.47;;;31.10;58.70;;;;;;4984884;28;20471;-92
2023/06/19 08:59:28;;;;;;;8.00;5.00;;;32.70;55.90;;;;;;4987722;28;20603;-92
2023/06/19 09:01:54;;;;;;;4.90;3.70;;;32.20;55.40;;;;;;4991037;28;20467;-90
2023/06/19 09:04:23;;;;;;;4.13;3.47;;;35.80;53.00;;;;;;4989439;28;20453;-90
2023/06/19 09:06:53;;;;;;;3.10;2.90;;;35.60;48.70;;;;;;4987445;28;20956;-89
2023/06/19 09:09:21;;;;;;;3.17;2.97;;;37.00;44.80;;;;;;4980582;28;20879;-90
2023/06/19 09:12:05;;;;;;;2.77;2.57;;;39.10;42.50;;;;;;4988588;28;20493;-90
2023/06/19 09:14:38;;;;;;;3.23;3.03;;;40.50;40.00;;;;;;4980563;28;21097;-89
2023/06/19 09:17:09;;;;;;;3.93;3.73;;;41.70;37.40;;;;;;4980220;28;20447;-90
2023/06/19 09:19:35;;;;;;;2.90;2.70;;;41.60;36.90;;;;;;4976543;28;20558;-90
2023/06/19 09:22:06;;;;;;;4.80;2.90;;;41.70;36.30;;;;;;4983309;28;20552;-90
2023/06/19 09:24:39;;;;;;;14.23;3.87;;;41.50;35.40;;;;;;4992988;28;20176;-90
2023/06/19 09:27:19;;;;;;;3.07;2.87;;;41.40;34.30;;;;;;4986441;28;20507;-90
2023/06/19 09:29:47;;;;;;;2.60;2.40;;;41.50;33.80;;;;;;4981245;28;20820;-90
2023/06/19 09:32:21;;;;;;;3.17;2.97;;;41.90;34.30;;;;;;4980032;28;21233;-90
2023/06/19 09:34:49;;;;;;;4.83;3.10;;;40.80;32.40;;;;;;4979343;28;20443;-89
2023/06/19 09:37:15;;;;;;;3.10;2.90;;;42.00;34.10;;;;;;4991349;28;20518;-90
2023/06/19 09:39:41;;;;;;;3.23;3.03;;;41.00;35.50;;;;;;4981315;28;20439;-90
2023/06/19 09:42:08;;;;;;;3.93;3.23;;;40.90;36.00;;;;;;4982769;28;20479;-90
2023/06/19 09:44:43;;;;;;;2.83;2.63;;;41.00;35.30;;;;;;4985405;28;20908;-90
2023/06/19 09:47:23;;;;;;;3.30;2.83;;;40.00;34.70;;;;;;4982909;28;20972;-90
2023/06/19 09:49:54;;;;;;;3.07;2.80;;;38.20;36.40;;;;;;4984533;28;20458;-90
2023/06/19 09:52:22;;;;;;;3.50;3.30;;;37.10;38.80;;;;;;4983686;28;20882;-90
2023/06/19 09:54:51;;;;;;;2.70;2.50;;;36.90;39.60;;;;;;4994075;28;20439;-90
2023/06/19 09:57:18;;;;;;;4.20;3.90;;;36.90;39.60;;;;;;5006545;28;20439;-90
2023/06/19 09:59:50;;;;;;;4.20;3.80;;;38.20;41.60;;;;;;5010994;28;20927;-91
2023/06/19 10:02:18;;;;;;;4.30;3.90;;;38.80;39.40;;;;;;4987022;28;20561;-90
2023/06/19 10:04:45;;;;;;;4.10;3.83;;;40.40;40.00;;;;;;4980947;28;20442;-91
2023/06/19 10:07:22;;;;;;;3.80;3.40;;;39.50;39.10;;;;;;4986469;28;20525;-90
2023/06/19 10:10:01;;;;;;;3.50;3.30;;;38.90;38.40;;;;;;4979959;28;21009;-90
2023/06/19 10:12:41;;;;;;;5.20;4.30;;;37.40;41.80;;;;;;4986533;28;20554;-91
2023/06/19 10:15:11;;;;;;;4.10;3.80;;;37.90;39.70;;;;;;4986898;28;20459;-91
2023/06/19 10:17:37;;;;;;;3.87;3.60;;;38.20;39.90;;;;;;4982008;28;20450;-90
2023/06/19 10:20:04;;;;;;;4.23;4.03;;;37.40;40.70;;;;;;4988395;28;20472;-91
2023/06/19 10:22:33;;;;;;;4.00;3.70;;;36.70;41.50;;;;;;4984837;28;20488;-90
2023/06/19 10:24:58;;;;;;;3.70;3.50;;;37.30;43.30;;;;;;5006687;28;20968;-91
2023/06/19 10:27:26;;;;;;;3.40;3.10;;;38.30;41.50;;;;;;4985408;28;20485;-91
2023/06/19 10:29:53;;;;;;;3.47;3.27;;;38.20;39.20;;;;;;4990490;28;20271;-90
2023/06/19 10:32:20;;;;;;;3.70;3.50;;;38.90;39.20;;;;;;4990005;28;20470;-91
2023/06/19 10:34:48;;;;;;;4.70;4.20;;;41.30;39.20;;;;;;4985430;28;20524;-90
2023/06/19 10:37:14;;;;;;;4.23;3.93;;;39.80;37.00;;;;;;4983820;28;20463;-90
2023/06/19 10:39:40;;;;;;;4.40;4.10;;;39.60;37.00;;;;;;4983035;28;20479;-90
2023/06/19 10:42:10;;;;;;;4.90;4.60;;;39.70;38.90;;;;;;4987032;28;21165;-91
2023/06/19 10:44:37;;;;;;;3.77;3.57;;;38.90;38.20;;;;;;4986903;28;20187;-91
2023/06/19 10:47:04;;;;;;;9.00;8.30;;;37.50;40.10;;;;;;4984081;28;20474;-91
2023/06/19 10:49:32;;;;;;;5.33;4.83;;;36.50;42.20;;;;;;4992678;28;20454;-91
2023/06/19 10:51:59;;;;;;;4.57;4.00;;;35.30;43.30;;;;;;4975373;28;20518;-92
2023/06/19 10:54:27;;;;;;;4.17;3.97;;;35.00;46.80;;;;;;4994139;28;20438;-91
2023/06/19 10:56:54;;;;;;;4.60;4.30;;;33.50;47.20;;;;;;4997376;28;20529;-91
2023/06/19 10:59:20;;;;;;;5.00;4.20;;;32.70;49.70;;;;;;5006384;28;20493;-91
2023/06/19 11:01:47;;;;;;;4.23;3.93;;;31.60;53.10;;;;;;5005098;28;20810;-91
2023/06/19 11:04:18;;;;;;;5.83;5.30;;;32.00;52.60;;;;;;5003014;28;20195;-91
2023/06/19 11:06:46;;;;;;;5.10;4.70;;;31.10;52.60;;;;;;4994307;28;20541;-91
2023/06/19 11:09:13;;;;;;;4.70;4.40;;;33.40;55.80;;;;;;4982906;28;20490;-91
2023/06/19 11:11:48;;;;;;;5.27;4.77;;;30.50;54.10;;;;;;4986119;28;20447;-91
2023/06/19 11:14:16;;;;;;;4.93;4.57;;;31.80;56.40;;;;;;4982479;28;21008;-92
2023/06/19 11:16:44;;;;;;;5.40;4.90;;;31.50;54.90;;;;;;4989589;28;20489;-91
2023/06/19 11:19:18;;;;;;;4.27;3.97;;;32.20;53.00;;;;;;4979269;28;20956;-92
2023/06/19 11:21:49;;;;;;;5.80;4.30;;;34.20;50.10;;;;;;4974412;28;20465;-90
2023/06/19 11:24:18;;;;;;;4.20;3.90;;;36.10;47.30;;;;;;4999264;28;20443;-90
2023/06/19 11:26:49;;;;;;;4.47;4.17;;;39.30;45.80;;;;;;4983679;28;21015;-90
2023/06/19 11:29:26;;;;;;;4.67;4.27;;;35.30;46.00;;;;;;4993857;28;20533;-90
2023/06/19 11:32:06;;;;;;;4.37;3.97;;;35.90;45.30;;;;;;4981361;28;20463;-90
2023/06/19 11:34:33;;;;;;;4.50;4.20;;;35.30;46.60;;;;;;4983812;28;20440;-90
2023/06/19 11:36:59;;;;;;;5.37;4.87;;;34.50;48.20;;;;;;4985961;28;20842;-90
2023/06/19 11:39:25;;;;;;;5.87;4.17;;;34.60;48.00;;;;;;4986342;28;20443;-90
2023/06/19 11:41:51;;;;;;;4.23;3.83;;;35.60;48.00;;;;;;4986748;28;20204;-91
2023/06/19 11:44:17;;;;;;;5.10;4.57;;;35.70;47.40;;;;;;4969754;28;20228;-90
2023/06/19 11:46:43;;;;;;;4.57;4.27;;;36.40;47.10;;;;;;4982611;28;20187;-91
2023/06/19 11:49:09;;;;;;;4.33;4.10;;;38.10;47.20;;;;;;4994410;28;20179;-91
2023/06/19 11:51:35;;;;;;;4.30;4.00;;;37.60;47.20;;;;;;4993338;28;20451;-91
2023/06/19 11:54:02;;;;;;;4.33;4.03;;;35.00;47.50;;;;;;5004594;28;20517;-91
2023/06/19 11:56:29;;;;;;;4.67;4.37;;;34.20;47.70;;;;;;4990425;28;21039;-91
2023/06/19 11:58:55;;;;;;;4.93;4.47;;;34.20;48.80;;;;;;4990750;28;20446;-91
2023/06/19 12:01:20;;;;;;;4.50;4.10;;;35.00;52.50;;;;;;4989466;28;20446;-92
2023/06/19 12:03:47;;;;;;;5.53;5.03;;;33.00;52.10;;;;;;4988231;28;20493;-91
2023/06/19 12:06:12;;;;;;;4.50;4.10;;;32.40;53.60;;;;;;4990595;28;20533;-91
2023/06/19 12:08:38;;;;;;;5.27;4.67;;;34.80;55.80;;;;;;4985219;28;20187;-91
2023/06/19 12:11:07;;;;;;;4.73;4.33;;;31.30;53.50;;;;;;4984728;28;20198;-91
2023/06/19 12:13:33;;;;;;;4.60;4.30;;;29.70;53.30;;;;;;5000580;28;20261;-91
2023/06/19 12:15:59;;;;;;;5.10;4.30;;;32.90;55.10;;;;;;4986241;28;20594;-91
2023/06/19 12:18:27;;;;;;;5.03;4.73;;;30.90;54.30;;;;;;4987868;28;20174;-91
2023/06/19 12:20:53;;;;;;;4.87;4.47;;;30.60;54.10;;;;;;4985742;28;20531;-91
2023/06/19 12:23:19;;;;;;;5.23;4.83;;;32.20;55.50;;;;;;4984308;28;20502;-90
2023/06/19 12:25:45;;;;;;;4.70;4.30;;;30.40;55.10;;;;;;4986062;28;20287;-90
2023/06/19 12:28:11;;;;;;;5.40;4.90;;;;;;;;;;4984573;28;20432;-90
2023/06/19 12:30:37;;;;;;;6.70;6.10;;;31.30;52.40;;;;;;4990616;28;20643;-91
2023/06/19 12:33:04;;;;;;;5.40;5.00;;;32.40;55.00;;;;;;4983256;28;20462;-90
2023/06/19 12:35:29;;;;;;;5.00;4.70;;;31.70;54.20;;;;;;4987495;28;21053;-91
2023/06/19 12:37:57;;;;;;;5.27;4.73;;;31.60;54.10;;;;;;4988806;28;20445;-90
2023/06/19 12:40:23;;;;;;;4.57;4.27;;;34.20;55.50;;;;;;4986548;28;20268;-91
2023/06/19 12:42:50;;;;;;;4.40;4.10;;;31.10;53.80;;;;;;4986382;28;20521;-91
2023/06/19 12:45:16;;;;;;;4.93;4.53;;;31.10;55.10;;;;;;4990911;28;20233;-90
2023/06/19 12:47:41;;;;;;;4.53;4.23;;;31.60;56.50;;;;;;4998072;28;20504;-91
2023/06/19 12:50:07;;;;;;;4.23;3.93;;;31.20;54.90;;;;;;5008786;28;20174;-91
2023/06/19 12:52:33;;;;;;;4.80;4.50;;;31.80;55.20;;;;;;5001793;28;20210;-90
2023/06/19 12:55:01;;;;;;;5.30;4.90;;;32.90;56.50;;;;;;4996305;28;20447;-91
2023/06/19 12:57:28;;;;;;;4.70;4.30;;;31.20;55.70;;;;;;5010073;28;20220;-90
2023/06/19 12:59:54;;;;;;;4.57;4.30;;;31.30;55.20;;;;;;4987255;28;20444;-91
2023/06/19 13:02:20;;;;;;;7.37;4.80;;;31.20;56.00;;;;;;5010035;28;20538;-90
2023/06/19 13:04:45;;;;;;;4.60;4.20;;;31.60;55.90;;;;;;4986022;28;20190;-90
2023/06/19 13:07:12;;;;;;;5.23;4.83;;;33.30;56.90;;;;;;4986072;28;20200;-90
2023/06/19 13:09:38;;;;;;;4.47;4.07;;;30.20;55.40;;;;;;4985737;28;20181;-91
2023/06/19 13:12:04;;;;;;;5.40;5.00;;;33.40;57.20;;;;;;4993043;28;20478;-91
2023/06/19 13:14:31;;;;;;;5.33;4.93;;;30.90;55.50;;;;;;4990714;28;20436;-90
2023/06/19 13:16:57;;;;;;;5.07;4.60;;;31.40;56.00;;;;;;4984631;28;20471;-90
2023/06/19 13:19:24;;;;;;;5.00;4.57;;;33.90;57.60;;;;;;4983668;28;20446;-91
2023/06/19 13:21:50;;;;;;;5.93;5.43;;;31.50;54.90;;;;;;4984339;28;20260;-90
2023/06/19 13:24:16;;;;;;;4.90;4.60;;;31.80;54.20;;;;;;4984984;28;20443;-91
2023/06/19 13:26:43;;;;;;;5.17;4.63;;;31.60;54.30;;;;;;4985085;28;20508;-91
2023/06/19 13:29:11;;;;;;;4.77;4.47;;;31.50;53.60;;;;;;4982080;28;20672;-91
2023/06/19 13:31:37;;;;;;;5.00;4.70;;;34.20;54.80;;;;;;4986377;28;20444;-90
2023/06/19 13:34:03;;;;;;;9.50;6.93;;;32.00;54.20;;;;;;4971529;28;20902;-91
2023/06/19 13:36:28;;;;;;;4.47;4.17;;;31.70;54.10;;;;;;4988403;28;20195;-91
2023/06/19 13:38:57;;;;;;;4.93;4.63;;;32.00;54.10;;;;;;4989578;28;20440;-91
2023/06/19 13:41:26;;;;;;;4.67;4.37;;;31.60;54.70;;;;;;4983432;28;20444;-91
2023/06/19 13:43:53;;;;;;;4.53;4.23;;;32.80;55.40;;;;;;4983399;28;20817;-91
2023/06/19 13:46:21;;;;;;;5.00;4.60;;;32.40;56.60;;;;;;4992484;28;20447;-90
2023/06/19 13:48:54;;;;;;;6.07;4.67;;;30.60;53.60;;;;;;4990495;28;20538;-90
2023/06/19 13:51:21;;;;;;;7.63;5.50;;;31.60;55.80;;;;;;4983177;28;20977;-92
2023/06/19 13:53:48;;;;;;;5.23;4.70;;;31.10;53.80;;;;;;4977249;28;20441;-91
2023/06/19 13:56:14;;;;;;;4.53;4.13;;;31.00;54.20;;;;;;4986471;28;20508;-91
2023/06/19 13:58:40;;;;;;;4.37;4.07;;;32.70;56.60;;;;;;4977957;28;20452;-91
2023/06/19 14:01:08;;;;;;;4.10;3.80;;;32.80;56.50;;;;;;4979354;28;20192;-91
2023/06/19 14:03:35;;;;;;;4.23;3.93;;;30.50;56.50;;;;;;4984048;28;20204;-91
2023/06/19 14:06:00;;;;;;;4.50;4.20;;;30.90;55.00;;;;;;4981757;28;20508;-91
2023/06/19 14:08:26;;;;;;;5.13;4.70;;;30.70;55.70;;;;;;4981140;28;20493;-91
2023/06/19 14:10:51;;;;;;;4.87;4.43;;;30.90;55.60;;;;;;4987380;28;20188;-91
2023/06/19 14:13:17;;;;;;;4.93;4.53;;;32.10;56.30;;;;;;4987563;28;20650;-91
2023/06/19 14:15:43;;;;;;;4.73;4.43;;;32.60;57.00;;;;;;4997016;28;20239;-91
2023/06/19 14:18:08;;;;;;;4.60;4.30;;;30.20;56.00;;;;;;5005129;28;20173;-91
2023/06/19 14:20:34;;;;;;;4.80;4.40;;;32.40;57.10;;;;;;4984964;28;20737;-91
2023/06/19 14:23:00;;;;;;;4.63;4.33;;;32.30;57.00;;;;;;4982087;28;20217;-91
2023/06/19 14:25:26;;;;;;;5.30;4.90;;;30.10;54.70;;;;;;5020550;23;20228;-68
2023/06/19 14:27:52;;;;;;;5.87;5.37;;;30.50;54.30;;;;;;4963088;28;20185;-68
2023/06/19 14:30:18;;;;;;;4.83;4.43;;;30.70;54.20;;;;;;4961902;28;21039;-67
2023/06/19 14:32:43;;;;;;;4.53;4.13;;;30.70;53.80;;;;;;4958612;28;20208;-70
2023/06/19 14:35:09;;;;;;;5.37;4.87;;;30.80;53.80;;;;;;4966609;28;20490;-70
2023/06/19 14:37:34;;;;;;;5.97;4.90;;;31.10;53.90;;;;;;4964056;28;20188;-69
2023/06/19 14:40:00;;;;;;;4.10;3.80;;;31.10;53.20;;;;;;4963901;28;20181;-70
2023/06/19 14:42:25;;;;;;;4.33;4.03;;;31.20;52.50;;;;;;4963440;28;20701;-70
2023/06/19 14:44:51;;;;;;;5.80;4.90;;;31.20;52.70;;;;;;4961208;28;20193;-70
2023/06/19 14:47:17;;;;;;;7.53;4.50;;;30.90;52.60;;;;;;4962322;28;20192;-70
2023/06/19 14:49:42;;;;;;;4.60;4.30;;;31.40;52.60;;;;;;4963323;28;20193;-69
2023/06/19 14:52:08;;;;;;;5.90;5.40;;;31.30;52.20;;;;;;4966588;28;20639;-70
2023/06/19 14:54:33;;;;;;;5.10;4.70;;;31.30;52.40;;;;;;4961806;28;20213;-70
2023/06/19 14:56:59;;;;;;;4.90;4.50;;;31.20;52.70;;;;;;4961466;28;20222;-70
2023/06/19 14:59:25;;;;;;;7.00;6.40;;;31.10;52.20;;;;;;4961853;28;20264;-69
2023/06/19 15:01:51;;;;;;;4.40;4.10;;;31.00;53.30;;;;;;4966822;28;20210;-69
2023/06/19 15:04:16;;;;;;;4.83;4.53;;;31.00;52.80;;;;;;4956533;28;20456;-70
2023/06/19 15:06:42;;;;;;;8.17;4.37;;;31.10;52.70;;;;;;4965588;28;20709;-70
2023/06/19 15:09:07;;;;;;;4.47;3.90;;;31.00;53.40;;;;;;4965321;28;20189;-70
2023/06/19 15:11:33;;;;;;;5.10;4.60;;;31.10;53.70;;;;;;4961766;28;20213;-69
2023/06/19 15:13:59;;;;;;;5.20;4.80;;;31.00;53.70;;;;;;4961596;28;20193;-69